createdAt,value
2024-01-30T00:01:18.625Z,10.57
2024-01-30T00:03:45.736Z,11.95
2024-01-30T00:06:13.398Z,8.80
2024-01-30T00:08:40.508Z,10.63
2024-01-30T00:11:08.927Z,9.53
2024-01-30T00:13:35.969Z,10.75
2024-01-30T00:16:03.050Z,11.05
2024-01-30T00:18:30.114Z,9.48
2024-01-30T00:20:57.234Z,9.27
2024-01-30T00:23:24.320Z,11.15
2024-01-30T00:25:51.636Z,9.67
2024-01-30T00:28:18.699Z,10.27
2024-01-30T00:30:45.868Z,11.67
2024-01-30T00:33:13.075Z,12.50
2024-01-30T00:35:40.220Z,9.75
2024-01-30T00:38:09.761Z,10.43
2024-01-30T00:40:36.764Z,10.00
2024-01-30T00:43:03.857Z,9.93
2024-01-30T00:45:30.942Z,12.60
2024-01-30T00:47:58.259Z,9.90
2024-01-30T00:50:25.371Z,12.10
2024-01-30T00:52:52.525Z,9.38
2024-01-30T00:55:19.793Z,9.80
2024-01-30T00:57:46.949Z,10.10
2024-01-30T01:00:17.172Z,8.85
2024-01-30T01:02:44.999Z,9.13
2024-01-30T01:05:12.071Z,8.23
2024-01-30T01:07:39.145Z,10.73
2024-01-30T01:10:06.641Z,8.10
2024-01-30T01:12:33.801Z,9.35
2024-01-30T01:15:00.804Z,9.05
2024-01-30T01:17:28.409Z,12.07
2024-01-30T01:19:55.548Z,10.50
2024-01-30T01:22:22.659Z,10.77
2024-01-30T01:24:49.997Z,11.52
2024-01-30T01:27:17.395Z,11.98
2024-01-30T01:29:44.486Z,13.00
2024-01-30T01:32:11.557Z,9.35
2024-01-30T01:34:38.740Z,8.68
2024-01-30T01:37:06.219Z,10.25
2024-01-30T01:39:33.459Z,10.43
2024-01-30T01:42:00.666Z,12.13
2024-01-30T01:44:28.510Z,10.50
2024-01-30T01:46:56.353Z,10.93
2024-01-30T01:49:26.556Z,13.20
2024-01-30T01:51:58.202Z,9.90
2024-01-30T01:54:28.280Z,11.80
2024-01-30T01:56:55.795Z,12.20
2024-01-30T01:59:25.093Z,8.95
2024-01-30T02:01:54.617Z,10.25
2024-01-30T02:04:21.949Z,10.65
2024-01-30T02:06:49.425Z,13.07
2024-01-30T02:09:17.072Z,11.40
2024-01-30T02:11:44.282Z,10.57
2024-01-30T02:14:11.360Z,11.85
2024-01-30T02:16:38.468Z,9.93
2024-01-30T02:19:06.651Z,11.80
2024-01-30T02:21:37.866Z,8.63
2024-01-30T02:24:06.166Z,10.23
2024-01-30T02:26:33.769Z,11.68
2024-01-30T02:29:01.167Z,8.15
2024-01-30T02:31:28.382Z,11.25
2024-01-30T02:33:55.579Z,11.95
2024-01-30T02:36:22.768Z,8.45
2024-01-30T02:38:50.007Z,10.07
2024-01-30T02:41:16.980Z,10.27
2024-01-30T02:43:44.259Z,12.55
2024-01-30T02:46:11.300Z,11.68
2024-01-30T02:48:40.467Z,16.57
2024-01-30T02:51:07.587Z,9.75
2024-01-30T02:53:34.707Z,13.32
2024-01-30T02:56:03.182Z,9.75
2024-01-30T02:58:30.253Z,9.27
2024-01-30T03:00:57.461Z,8.50
2024-01-30T03:03:24.620Z,9.90
2024-01-30T03:05:51.711Z,10.68
2024-01-30T03:08:18.828Z,12.50
2024-01-30T03:10:46.060Z,10.00
2024-01-30T03:13:13.327Z,12.07
2024-01-30T03:15:40.799Z,12.52
2024-01-30T03:18:08.091Z,10.25
2024-01-30T03:20:35.135Z,14.27
2024-01-30T03:23:02.411Z,10.15
2024-01-30T03:25:29.545Z,11.13
2024-01-30T03:27:57.043Z,9.85
2024-01-30T03:30:24.582Z,11.85
2024-01-30T03:32:51.899Z,12.63
2024-01-30T03:35:20.405Z,12.27
2024-01-30T03:37:47.464Z,13.32
2024-01-30T03:40:14.757Z,11.75
2024-01-30T03:42:41.952Z,10.75
2024-01-30T03:45:09.678Z,10.32
2024-01-30T03:47:36.844Z,11.23
2024-01-30T03:50:06.132Z,9.63
2024-01-30T03:52:33.170Z,11.27
2024-01-30T03:55:00.344Z,11.95
2024-01-30T03:57:27.499Z,8.60
2024-01-30T03:59:54.677Z,13.15
2024-01-30T04:02:22.081Z,11.27
2024-01-30T04:04:49.240Z,11.27
2024-01-30T04:07:16.575Z,9.93
2024-01-30T04:09:43.986Z,8.88
2024-01-30T04:12:11.192Z,11.57
2024-01-30T04:14:40.659Z,10.82
2024-01-30T04:17:07.572Z,10.48
2024-01-30T04:19:39.463Z,9.55
2024-01-30T04:22:06.527Z,10.45
2024-01-30T04:24:33.693Z,10.73
2024-01-30T04:27:00.624Z,9.90
2024-01-30T04:29:27.610Z,7.50
2024-01-30T04:31:54.676Z,9.93
2024-01-30T04:34:21.879Z,10.90
2024-01-30T04:36:49.001Z,10.02
2024-01-30T04:39:16.108Z,10.48
2024-01-30T04:41:43.115Z,8.10
2024-01-30T04:44:10.160Z,10.88
2024-01-30T04:46:37.142Z,8.10
2024-01-30T04:49:04.872Z,12.05
2024-01-30T04:51:31.973Z,9.07
2024-01-30T04:53:58.934Z,12.63
2024-01-30T04:56:25.962Z,12.18
2024-01-30T04:58:53.242Z,13.13
2024-01-30T05:01:20.357Z,8.32
2024-01-30T05:03:47.368Z,9.43
2024-01-30T05:06:14.472Z,11.40
2024-01-30T05:08:41.510Z,8.75
2024-01-30T05:11:08.651Z,9.35
2024-01-30T05:13:35.687Z,16.40
2024-01-30T05:16:04.972Z,10.57
2024-01-30T05:18:32.090Z,10.57
2024-01-30T05:20:59.280Z,15.32
2024-01-30T05:23:26.361Z,11.23
2024-01-30T05:25:53.475Z,14.48
2024-01-30T05:28:20.516Z,11.40
2024-01-30T05:30:47.716Z,14.30
2024-01-30T05:33:15.025Z,6.93
2024-01-30T05:35:42.008Z,13.10
2024-01-30T05:38:09.085Z,8.65
2024-01-30T05:40:36.150Z,11.25
2024-01-30T05:43:04.090Z,11.20
2024-01-30T05:45:31.372Z,10.95
2024-01-30T05:47:58.539Z,15.23
2024-01-30T05:50:26.724Z,10.35
2024-01-30T05:52:54.063Z,11.90
2024-01-30T05:55:21.088Z,13.57
2024-01-30T05:57:48.187Z,9.70
2024-01-30T06:00:15.911Z,9.48
2024-01-30T06:02:42.898Z,10.32
2024-01-30T06:05:10.222Z,10.85
2024-01-30T06:07:37.689Z,13.90
2024-01-30T06:10:05.375Z,12.43
2024-01-30T06:12:32.417Z,16.42
2024-01-30T06:14:59.627Z,11.65
2024-01-30T06:17:26.577Z,12.43
2024-01-30T06:19:53.557Z,10.40
2024-01-30T06:22:21.121Z,15.55
2024-01-30T06:24:49.965Z,10.32
2024-01-30T06:27:17.098Z,12.25
2024-01-30T06:29:44.796Z,11.55
2024-01-30T06:32:12.042Z,9.38
2024-01-30T06:34:40.154Z,11.65
2024-01-30T06:37:07.498Z,14.13
2024-01-30T06:39:34.507Z,12.93
2024-01-30T06:42:01.783Z,12.43
2024-01-30T06:44:32.214Z,9.98
2024-01-30T06:47:00.540Z,14.02
2024-01-30T06:49:27.649Z,15.10
2024-01-30T06:51:54.743Z,14.65
2024-01-30T06:54:21.724Z,11.48
2024-01-30T06:56:48.719Z,13.65
2024-01-30T06:59:15.747Z,11.38
2024-01-30T07:01:42.786Z,12.65
2024-01-30T07:04:09.910Z,12.27
2024-01-30T07:06:37.016Z,11.63
2024-01-30T07:09:04.689Z,16.48
2024-01-30T07:11:31.880Z,13.50
2024-01-30T07:13:58.957Z,16.60
2024-01-30T07:16:26.155Z,12.55
2024-01-30T07:18:53.439Z,18.38
2024-01-30T07:21:22.998Z,10.75
2024-01-30T07:23:50.659Z,12.75
2024-01-30T07:26:17.860Z,13.57
2024-01-30T07:28:45.260Z,14.43
2024-01-30T07:31:12.493Z,11.05
2024-01-30T07:33:39.610Z,15.68
2024-01-30T07:36:07.130Z,13.50
2024-01-30T07:38:34.285Z,14.90
2024-01-30T07:41:01.397Z,13.75
2024-01-30T07:43:28.548Z,15.70
2024-01-30T07:45:55.796Z,17.52
2024-01-30T07:48:22.907Z,14.23
2024-01-30T07:50:50.087Z,22.48
2024-01-30T07:53:17.142Z,18.45
2024-01-30T07:55:48.089Z,17.80
2024-01-30T07:58:15.402Z,16.55
2024-01-30T08:00:44.220Z,11.95
2024-01-30T08:03:11.339Z,11.90
2024-01-30T08:05:40.593Z,16.48
2024-01-30T08:08:07.890Z,13.30
2024-01-30T08:10:35.182Z,12.75
2024-01-30T08:13:03.131Z,14.43
2024-01-30T08:15:30.353Z,15.48
2024-01-30T08:17:59.217Z,15.02
2024-01-30T08:20:26.839Z,23.08
2024-01-30T08:22:54.296Z,14.13
2024-01-30T08:25:21.515Z,16.05
2024-01-30T08:27:48.695Z,12.98
2024-01-30T08:30:15.988Z,17.88
2024-01-30T08:32:43.088Z,14.57
2024-01-30T08:35:10.444Z,15.38
2024-01-30T08:37:38.025Z,14.23
2024-01-30T08:40:06.105Z,19.10
2024-01-30T08:42:34.451Z,19.35
2024-01-30T08:45:01.820Z,16.15
2024-01-30T08:47:31.602Z,13.38
2024-01-30T08:49:58.892Z,16.02
2024-01-30T08:52:26.674Z,14.43
2024-01-30T08:54:53.704Z,15.57
2024-01-30T08:57:20.940Z,15.20
2024-01-30T08:59:48.011Z,16.20
2024-01-30T09:02:17.612Z,17.40
2024-01-30T09:04:45.063Z,23.30
2024-01-30T09:07:12.559Z,19.20
2024-01-30T09:09:42.064Z,16.63
2024-01-30T09:12:10.920Z,15.48
2024-01-30T09:14:39.104Z,24.00
2024-01-30T09:17:06.205Z,14.93
2024-01-30T09:19:33.848Z,18.13
2024-01-30T09:22:01.377Z,17.92
2024-01-30T09:24:28.993Z,18.58
2024-01-30T09:26:56.634Z,19.63
2024-01-30T09:29:23.757Z,15.75
2024-01-30T09:31:50.853Z,14.40
2024-01-30T09:34:18.089Z,15.15
2024-01-30T09:36:45.541Z,16.77
2024-01-30T09:39:12.595Z,15.90
2024-01-30T09:42:18.743Z,14.55
2024-01-30T09:44:48.184Z,17.90
2024-01-30T09:47:17.783Z,16.23
2024-01-30T09:49:45.715Z,15.07
2024-01-30T09:52:13.163Z,19.00
2024-01-30T09:54:41.138Z,20.02
2024-01-30T09:57:09.018Z,16.17
2024-01-30T09:59:36.155Z,16.42
2024-01-30T10:02:05.532Z,18.42
2024-01-30T10:04:33.089Z,12.90
2024-01-30T10:07:03.516Z,15.38
2024-01-30T10:09:34.052Z,17.38
2024-01-30T10:12:01.078Z,16.20
2024-01-30T10:14:28.110Z,15.02
2024-01-30T10:16:55.133Z,16.08
2024-01-30T10:19:22.478Z,19.35
2024-01-30T10:21:49.666Z,16.27
2024-01-30T10:24:18.118Z,20.35
2024-01-30T10:26:45.526Z,17.13
2024-01-30T10:29:12.610Z,18.05
2024-01-30T10:31:39.915Z,14.38
2024-01-30T10:34:12.538Z,23.33
2024-01-30T10:36:51.364Z,15.20
2024-01-30T10:39:19.222Z,16.95
2024-01-30T10:41:49.908Z,14.50
2024-01-30T10:44:21.409Z,17.33
2024-01-30T10:46:57.013Z,16.45
2024-01-30T10:49:25.764Z,18.15
2024-01-30T10:51:54.170Z,15.15
2024-01-30T10:54:21.692Z,16.77
2024-01-30T10:56:49.979Z,17.13
2024-01-30T10:59:17.469Z,22.40
2024-01-30T11:01:45.152Z,17.42
2024-01-30T11:04:12.619Z,19.35
2024-01-30T11:06:44.001Z,23.70
2024-01-30T11:09:14.302Z,14.60
2024-01-30T11:12:01.944Z,20.02
2024-01-30T11:14:31.613Z,12.95
2024-01-30T11:17:02.550Z,14.52
2024-01-30T11:19:34.765Z,15.88
2024-01-30T11:22:02.148Z,17.77
2024-01-30T11:24:29.231Z,16.95
2024-01-30T11:27:00.660Z,18.02
2024-01-30T11:29:29.675Z,13.45
2024-01-30T11:31:58.285Z,17.77
2024-01-30T11:34:26.013Z,20.42
2024-01-30T11:37:14.582Z,20.55
2024-01-30T11:39:44.244Z,17.77
2024-01-30T11:42:12.464Z,17.48
2024-01-30T11:44:39.542Z,18.83
2024-01-30T11:47:06.819Z,20.00
2024-01-30T11:49:34.017Z,22.05
2024-01-30T11:52:01.162Z,15.32
2024-01-30T11:54:28.386Z,15.82
2024-01-30T11:56:55.880Z,16.80
2024-01-30T11:59:22.890Z,18.48
2024-01-30T12:01:50.276Z,17.13
2024-01-30T12:04:17.609Z,14.93
2024-01-30T12:06:44.838Z,18.85
2024-01-30T12:09:14.539Z,16.15
2024-01-30T12:11:53.738Z,19.05
2024-01-30T12:14:21.451Z,20.55
2024-01-30T12:16:52.289Z,20.52
2024-01-30T12:19:26.627Z,17.08
2024-01-30T12:22:00.849Z,23.55
2024-01-30T12:24:29.341Z,17.60
2024-01-30T12:27:00.091Z,18.58
2024-01-30T12:29:30.719Z,22.05
2024-01-30T12:32:01.398Z,30.95
2024-01-30T12:34:28.920Z,14.38
2024-01-30T12:36:57.169Z,13.48
2024-01-30T12:39:24.606Z,18.10
2024-01-30T12:41:52.858Z,19.73
2024-01-30T12:44:20.081Z,17.52
2024-01-30T12:46:49.071Z,16.20
2024-01-30T12:49:16.163Z,21.85
2024-01-30T12:51:43.265Z,20.58
2024-01-30T12:54:10.476Z,18.67
2024-01-30T12:56:37.438Z,17.88
2024-01-30T12:59:04.467Z,16.77
2024-01-30T13:01:31.754Z,18.05
2024-01-30T13:03:59.993Z,15.73
2024-01-30T13:06:27.297Z,16.73
2024-01-30T13:08:54.539Z,16.90
2024-01-30T13:11:22.084Z,19.35
2024-01-30T13:13:49.520Z,16.20
2024-01-30T13:16:16.644Z,17.40
2024-01-30T13:18:43.736Z,17.65
2024-01-30T13:21:11.016Z,20.08
2024-01-30T13:23:38.035Z,17.80
2024-01-30T13:26:05.404Z,16.45
2024-01-30T13:28:32.521Z,17.52
2024-01-30T13:30:59.681Z,21.02
2024-01-30T13:33:27.569Z,21.38
2024-01-30T13:35:54.677Z,25.55
2024-01-30T13:38:21.680Z,25.35
2024-01-30T13:40:48.729Z,19.02
2024-01-30T13:43:16.082Z,23.48
2024-01-30T13:45:43.677Z,20.75
2024-01-30T13:48:10.711Z,18.17
2024-01-30T13:50:37.716Z,18.10
2024-01-30T13:53:05.939Z,21.42
2024-01-30T13:55:33.317Z,19.05
2024-01-30T13:58:00.760Z,22.55
2024-01-30T14:00:27.831Z,20.92
2024-01-30T14:02:59.443Z,18.10
2024-01-30T14:05:27.516Z,24.00
2024-01-30T14:07:55.224Z,21.42
2024-01-30T14:10:22.289Z,21.50
2024-01-30T14:12:49.529Z,20.85
2024-01-30T14:15:27.324Z,21.38
2024-01-30T14:17:56.936Z,26.38
2024-01-30T14:20:24.540Z,23.65
2024-01-30T14:22:52.880Z,17.52
2024-01-30T14:25:20.872Z,19.13
2024-01-30T14:27:48.337Z,19.05
2024-01-30T14:30:15.365Z,19.13
2024-01-30T14:32:43.940Z,20.75
2024-01-30T14:35:11.648Z,19.35
2024-01-30T14:37:39.303Z,19.80
2024-01-30T14:40:08.870Z,20.70
2024-01-30T14:42:37.308Z,16.35
2024-01-30T14:45:08.838Z,14.73
2024-01-30T14:47:37.283Z,19.67
2024-01-30T14:50:08.729Z,22.10
2024-01-30T14:52:38.774Z,19.40
2024-01-30T14:55:06.760Z,22.05
2024-01-30T14:57:36.249Z,21.85
2024-01-30T15:00:04.054Z,24.95
2024-01-30T15:02:33.015Z,17.85
2024-01-30T15:05:01.009Z,20.73
2024-01-30T15:07:39.045Z,18.58
2024-01-30T15:10:11.884Z,21.85
2024-01-30T15:12:39.603Z,20.58
2024-01-30T15:15:10.026Z,18.67
2024-01-30T15:17:37.389Z,19.15
2024-01-30T15:20:05.505Z,20.13
2024-01-30T15:22:33.185Z,25.13
2024-01-30T15:25:00.573Z,17.77
2024-01-30T15:27:30.269Z,19.85
2024-01-30T15:29:58.009Z,22.65
2024-01-30T15:32:26.383Z,19.73
2024-01-30T15:34:54.667Z,19.50
2024-01-30T15:37:23.001Z,19.10
2024-01-30T15:39:50.195Z,23.85
2024-01-30T15:42:17.437Z,21.42
2024-01-30T15:44:44.580Z,19.75
2024-01-30T15:47:12.112Z,27.98
2024-01-30T15:49:39.322Z,29.15
2024-01-30T15:52:06.817Z,26.52
2024-01-30T15:54:33.943Z,22.38
2024-01-30T15:57:00.990Z,23.88
2024-01-30T15:59:28.482Z,20.95
2024-01-30T16:01:55.615Z,22.20
2024-01-30T16:04:25.080Z,24.10
2024-01-30T16:06:52.355Z,18.27
2024-01-30T16:09:19.463Z,20.38
2024-01-30T16:11:46.505Z,22.30
2024-01-30T16:14:13.885Z,21.60
2024-01-30T16:16:40.971Z,23.98
2024-01-30T16:19:08.237Z,21.98
2024-01-30T16:21:35.363Z,21.80
2024-01-30T16:24:02.517Z,20.77
2024-01-30T16:26:29.568Z,25.55
2024-01-30T16:28:56.637Z,19.13
2024-01-30T16:31:23.799Z,19.48
2024-01-30T16:33:51.088Z,21.80
2024-01-30T16:36:18.306Z,22.35
2024-01-30T16:38:45.471Z,19.75
2024-01-30T16:41:12.836Z,19.85
2024-01-30T16:43:40.104Z,21.60
2024-01-30T16:46:07.369Z,25.05
2024-01-30T16:48:34.742Z,21.13
2024-01-30T16:51:02.103Z,19.80
2024-01-30T16:53:30.136Z,22.75
2024-01-30T16:55:57.199Z,20.40
2024-01-30T16:58:24.481Z,21.50
2024-01-30T17:00:52.136Z,23.20
2024-01-30T17:03:19.312Z,26.40
2024-01-30T17:05:46.540Z,24.27
2024-01-30T17:08:13.930Z,22.05
2024-01-30T17:10:41.334Z,25.20
2024-01-30T17:13:08.474Z,20.70
2024-01-30T17:15:36.158Z,22.27
2024-01-30T17:18:03.396Z,22.70
2024-01-30T17:20:30.765Z,21.55
2024-01-30T17:22:57.986Z,25.60
2024-01-30T17:25:25.168Z,24.17
2024-01-30T17:27:52.891Z,23.35
2024-01-30T17:30:23.246Z,23.75
2024-01-30T17:32:54.012Z,21.15
2024-01-30T17:35:21.603Z,20.98
2024-01-30T17:37:48.792Z,19.83
2024-01-30T17:40:16.021Z,19.80
2024-01-30T17:42:43.250Z,24.55
2024-01-30T17:45:11.065Z,21.10
2024-01-30T17:47:39.094Z,27.80
2024-01-30T17:50:06.763Z,23.35
2024-01-30T17:52:34.043Z,27.63
2024-01-30T17:55:01.239Z,26.60
2024-01-30T17:57:30.790Z,21.00
2024-01-30T17:59:58.665Z,21.15
2024-01-30T18:02:26.649Z,21.20
2024-01-30T18:04:53.817Z,22.40
2024-01-30T18:07:21.921Z,28.40
2024-01-30T18:09:49.105Z,20.48
2024-01-30T18:12:16.227Z,29.15
2024-01-30T18:14:43.367Z,25.85
2024-01-30T18:17:10.426Z,25.35
2024-01-30T18:19:37.782Z,25.30
2024-01-30T18:22:05.008Z,29.92
2024-01-30T18:24:32.103Z,27.60
2024-01-30T18:26:59.276Z,22.33
2024-01-30T18:29:27.588Z,27.30
2024-01-30T18:31:54.783Z,28.45
2024-01-30T18:34:22.071Z,27.77
2024-01-30T18:36:49.283Z,26.92
2024-01-30T18:39:16.464Z,26.67
2024-01-30T18:41:43.764Z,25.38
2024-01-30T18:44:10.860Z,24.88
2024-01-30T18:46:38.383Z,25.95
2024-01-30T18:49:05.905Z,26.88
2024-01-30T18:51:33.089Z,23.38
2024-01-30T18:54:00.980Z,23.05
2024-01-30T18:56:27.986Z,23.48
2024-01-30T18:58:55.207Z,27.90
2024-01-30T19:01:22.442Z,25.73
2024-01-30T19:03:49.629Z,26.30
2024-01-30T19:06:17.080Z,25.40
2024-01-30T19:08:44.159Z,31.50
2024-01-30T19:11:21.676Z,24.60
2024-01-30T19:13:49.067Z,22.15
2024-01-30T19:16:16.142Z,29.52
2024-01-30T19:18:44.172Z,22.02
2024-01-30T19:21:11.287Z,24.10
2024-01-30T19:23:38.490Z,24.45
2024-01-30T19:26:05.922Z,27.67
2024-01-30T19:28:33.182Z,25.98
2024-01-30T19:31:02.114Z,28.65
2024-01-30T19:33:29.445Z,25.98
2024-01-30T19:35:56.508Z,23.52
2024-01-30T19:38:26.023Z,25.02
2024-01-30T19:40:55.973Z,21.52
2024-01-30T19:43:23.136Z,32.28
2024-01-30T19:45:50.582Z,28.27
2024-01-30T19:48:17.742Z,24.55
2024-01-30T19:50:45.008Z,30.33
2024-01-30T19:53:12.130Z,29.00
2024-01-30T19:55:39.223Z,27.75
2024-01-30T19:58:06.507Z,27.88
2024-01-30T20:00:33.774Z,27.02
2024-01-30T20:03:01.369Z,31.45
2024-01-30T20:05:28.700Z,28.52
2024-01-30T20:07:56.040Z,30.48
2024-01-30T20:10:23.302Z,27.50
2024-01-30T20:12:54.912Z,26.90
2024-01-30T20:15:23.501Z,29.30
2024-01-30T20:17:50.530Z,27.30
2024-01-30T20:20:18.276Z,25.75
2024-01-30T20:22:47.297Z,24.92
2024-01-30T20:25:19.132Z,25.38
2024-01-30T20:27:48.620Z,34.75
2024-01-30T20:30:17.826Z,27.80
2024-01-30T20:32:45.167Z,29.13
2024-01-30T20:35:12.373Z,29.52
2024-01-30T20:37:39.995Z,28.65
2024-01-30T20:40:07.967Z,28.48
2024-01-30T20:42:35.380Z,28.63
2024-01-30T20:45:05.849Z,32.88
2024-01-30T20:47:34.299Z,27.58
2024-01-30T20:50:01.504Z,24.98
2024-01-30T20:52:31.203Z,27.33
2024-01-30T20:54:58.331Z,28.42
2024-01-30T20:57:25.374Z,23.70
2024-01-30T20:59:52.444Z,25.58
2024-01-30T21:02:19.490Z,28.77
2024-01-30T21:05:06.102Z,25.52
2024-01-30T21:07:33.437Z,23.88
2024-01-30T21:10:00.597Z,22.23
2024-01-30T21:12:29.321Z,26.30
2024-01-30T21:14:56.480Z,25.65
2024-01-30T21:17:23.488Z,27.73
2024-01-30T21:19:50.646Z,28.13
2024-01-30T21:22:18.072Z,23.40
2024-01-30T21:24:45.477Z,25.23
2024-01-30T21:27:13.213Z,28.83
2024-01-30T21:29:42.638Z,28.33
2024-01-30T21:32:10.163Z,27.45
2024-01-30T21:34:37.350Z,27.98
2024-01-30T21:37:04.667Z,29.48
2024-01-30T21:39:31.825Z,31.63
2024-01-30T21:41:59.375Z,37.55
2024-01-30T21:44:29.225Z,26.63
2024-01-30T21:46:57.891Z,24.52
2024-01-30T21:49:25.210Z,24.33
2024-01-30T21:51:53.011Z,21.02
2024-01-30T21:54:20.132Z,28.45
2024-01-30T21:56:47.359Z,26.23
2024-01-30T21:59:14.655Z,23.88
2024-01-30T22:01:41.715Z,26.73
2024-01-30T22:04:08.999Z,26.00
2024-01-30T22:06:36.433Z,25.02
2024-01-30T22:09:03.728Z,29.83
2024-01-30T22:11:30.822Z,24.80
2024-01-30T22:13:58.076Z,26.77
2024-01-30T22:16:25.139Z,28.60
2024-01-30T22:18:52.258Z,25.63
2024-01-30T22:21:19.432Z,24.58
2024-01-30T22:23:47.441Z,25.80
2024-01-30T22:26:14.616Z,29.08
2024-01-30T22:28:41.693Z,32.00
2024-01-30T22:31:09.324Z,25.23
2024-01-30T22:33:36.436Z,23.27
2024-01-30T22:36:03.701Z,26.38
2024-01-30T22:38:31.050Z,27.00
2024-01-30T22:40:59.497Z,28.08
2024-01-30T22:43:27.491Z,23.95
2024-01-30T22:45:54.670Z,27.20
2024-01-30T22:48:21.699Z,26.08
2024-01-30T22:50:48.785Z,23.20
2024-01-30T22:53:15.799Z,22.73
2024-01-30T22:55:43.621Z,25.83
2024-01-30T22:58:10.759Z,23.35
2024-01-30T23:00:38.752Z,29.97
2024-01-30T23:03:05.916Z,27.42
2024-01-30T23:05:34.491Z,26.55
2024-01-30T23:08:01.570Z,23.45
2024-01-30T23:10:28.650Z,30.25
2024-01-30T23:12:55.853Z,29.27
2024-01-30T23:15:23.554Z,27.25
2024-01-30T23:17:51.163Z,28.27
2024-01-30T23:20:18.662Z,28.10
2024-01-30T23:22:45.744Z,29.98
2024-01-30T23:25:12.778Z,26.27
2024-01-30T23:27:40.121Z,25.27
2024-01-30T23:30:08.117Z,32.17
2024-01-30T23:32:41.796Z,28.23
2024-01-30T23:35:10.640Z,29.15
2024-01-30T23:37:39.843Z,31.08
2024-01-30T23:40:16.520Z,29.83
2024-01-30T23:42:45.394Z,26.55
2024-01-30T23:45:12.531Z,31.92
2024-01-30T23:47:39.934Z,34.65
2024-01-30T23:50:07.564Z,29.98
2024-01-30T23:52:35.217Z,30.48
2024-01-30T23:55:02.668Z,33.30
2024-01-30T23:57:31.059Z,33.53
2024-01-30T23:59:58.147Z,29.85
